createdAt,value
2023-03-15T00:00:28.816Z,2.70
2023-03-15T00:02:58.523Z,2.57
2023-03-15T00:05:28.152Z,3.43
2023-03-15T00:07:57.759Z,3.07
2023-03-15T00:10:30.003Z,3.33
2023-03-15T00:12:59.634Z,3.30
2023-03-15T00:15:29.740Z,3.10
2023-03-15T00:17:59.431Z,2.90
2023-03-15T00:20:29.108Z,2.20
2023-03-15T00:22:58.801Z,3.20
2023-03-15T00:25:31.179Z,2.77
2023-03-15T00:28:00.882Z,3.23
2023-03-15T00:30:30.842Z,3.03
2023-03-15T00:33:00.458Z,2.90
2023-03-15T00:35:30.298Z,2.53
2023-03-15T00:38:00.466Z,2.73
2023-03-15T00:40:32.694Z,3.03
2023-03-15T00:43:02.406Z,2.20
2023-03-15T00:45:32.212Z,2.47
2023-03-15T00:48:01.863Z,2.90
2023-03-15T00:50:31.509Z,3.00
2023-03-15T00:53:01.132Z,2.67
2023-03-15T00:55:33.940Z,2.70
2023-03-15T00:58:03.633Z,3.40
2023-03-15T01:00:33.423Z,2.70
2023-03-15T01:03:03.442Z,3.27
2023-03-15T01:05:33.110Z,3.20
2023-03-15T01:08:03.176Z,3.33
2023-03-15T01:10:37.546Z,3.27
2023-03-15T01:13:07.442Z,3.03
2023-03-15T01:15:37.163Z,2.97
2023-03-15T01:18:06.936Z,2.37
2023-03-15T01:20:36.590Z,3.67
2023-03-15T01:23:06.253Z,2.37
2023-03-15T01:25:38.608Z,3.00
2023-03-15T01:28:08.462Z,2.97
2023-03-15T01:30:38.528Z,3.67
2023-03-15T01:33:08.239Z,2.67
2023-03-15T01:35:37.922Z,3.00
2023-03-15T01:38:07.612Z,3.37
2023-03-15T01:40:44.051Z,3.03
2023-03-15T01:43:19.392Z,3.40
2023-03-15T01:46:09.234Z,3.40
2023-03-15T01:48:46.761Z,2.47
2023-03-15T01:51:25.999Z,3.33
2023-03-15T01:54:00.316Z,3.20
2023-03-15T01:56:34.373Z,2.83
2023-03-15T01:59:08.327Z,2.77
2023-03-15T02:01:39.711Z,2.40
2023-03-15T02:04:13.687Z,2.87
2023-03-15T02:06:49.357Z,2.10
2023-03-15T02:09:22.200Z,2.97
2023-03-15T02:11:54.578Z,2.83
2023-03-15T02:14:25.045Z,2.63
2023-03-15T02:16:55.268Z,3.20
2023-03-15T02:19:39.531Z,2.70
2023-03-15T02:22:19.268Z,3.23
2023-03-15T02:24:57.709Z,2.87
2023-03-15T02:27:34.538Z,3.23
2023-03-15T02:30:05.681Z,3.33
2023-03-15T02:32:35.578Z,2.27
2023-03-15T02:35:05.354Z,2.67
2023-03-15T02:37:35.104Z,2.97
2023-03-15T02:40:05.911Z,2.53
2023-03-15T02:42:38.195Z,2.77
2023-03-15T02:45:09.169Z,2.60
2023-03-15T02:47:39.019Z,2.87
2023-03-15T02:50:10.489Z,3.50
2023-03-15T02:52:40.165Z,2.57
2023-03-15T02:55:11.214Z,3.03
2023-03-15T02:57:43.498Z,3.33
2023-03-15T03:00:16.196Z,2.83
2023-03-15T03:02:49.734Z,2.87
2023-03-15T03:05:19.876Z,2.77
2023-03-15T03:07:50.545Z,3.07
2023-03-15T03:10:22.804Z,3.60
2023-03-15T03:12:58.309Z,3.40
2023-03-15T03:15:36.741Z,3.43
2023-03-15T03:18:06.705Z,3.30
2023-03-15T03:20:36.451Z,3.40
2023-03-15T03:23:06.179Z,3.70
2023-03-15T03:25:36.743Z,4.00
2023-03-15T03:28:09.154Z,3.33
2023-03-15T03:30:39.036Z,3.67
2023-03-15T03:33:09.333Z,4.23
2023-03-15T03:35:39.046Z,4.47
2023-03-15T03:38:08.766Z,3.30
2023-03-15T03:40:42.587Z,4.07
2023-03-15T03:43:14.935Z,4.10
2023-03-15T03:45:44.580Z,4.70
2023-03-15T03:48:14.909Z,3.30
2023-03-15T03:50:44.584Z,3.80
2023-03-15T03:53:14.635Z,3.47
2023-03-15T03:55:44.324Z,3.67
2023-03-15T03:58:22.345Z,3.40
2023-03-15T04:01:01.061Z,4.00
2023-03-15T04:03:34.088Z,3.70
2023-03-15T04:06:14.016Z,4.10
2023-03-15T04:08:47.196Z,3.20
2023-03-15T04:11:29.384Z,3.80
2023-03-15T04:14:05.269Z,3.80
2023-03-15T04:16:35.823Z,3.40
2023-03-15T04:19:09.513Z,4.00
2023-03-15T04:21:39.699Z,3.93
2023-03-15T04:24:21.144Z,3.87
2023-03-15T04:27:02.738Z,4.60
2023-03-15T04:29:53.351Z,4.73
2023-03-15T04:32:42.617Z,4.37
2023-03-15T04:35:20.574Z,4.97
2023-03-15T04:38:00.111Z,4.40
2023-03-15T04:40:48.610Z,4.83
2023-03-15T04:43:26.383Z,4.93
2023-03-15T04:46:11.146Z,4.90
2023-03-15T04:49:00.307Z,4.00
2023-03-15T04:51:43.708Z,4.90
2023-03-15T04:54:36.132Z,4.90
2023-03-15T04:57:18.185Z,4.27
2023-03-15T05:00:08.491Z,4.30
2023-03-15T05:02:54.949Z,4.43
2023-03-15T05:05:35.195Z,4.10
2023-03-15T05:08:17.189Z,5.00
2023-03-15T05:11:01.734Z,5.40
2023-03-15T05:13:47.920Z,5.00
2023-03-15T05:16:20.564Z,4.60
2023-03-15T05:19:05.591Z,4.80
2023-03-15T05:21:46.465Z,5.63
2023-03-15T05:24:45.335Z,6.00
2023-03-15T05:27:34.050Z,5.63
2023-03-15T05:30:15.081Z,5.17
2023-03-15T05:33:07.778Z,5.60
2023-03-15T05:35:47.517Z,5.60
2023-03-15T05:38:36.929Z,5.53
2023-03-15T05:41:32.497Z,5.57
2023-03-15T05:44:33.914Z,5.77
2023-03-15T05:47:21.870Z,5.50
2023-03-15T05:50:05.317Z,5.67
2023-03-15T05:53:06.628Z,5.33
2023-03-15T05:55:54.592Z,5.80
2023-03-15T05:58:43.307Z,5.30
2023-03-15T06:01:16.019Z,5.63
2023-03-15T06:04:10.686Z,5.30
2023-03-15T06:06:40.791Z,5.43
2023-03-15T06:09:15.504Z,4.70
2023-03-15T06:11:47.876Z,5.20
2023-03-15T06:14:17.546Z,6.30
2023-03-15T06:16:55.489Z,5.23
2023-03-15T06:19:26.714Z,5.13
2023-03-15T06:21:57.512Z,4.70
2023-03-15T06:24:42.284Z,4.47
2023-03-15T06:27:12.176Z,4.33
2023-03-15T06:29:42.016Z,4.10
2023-03-15T06:32:12.478Z,4.97
2023-03-15T06:34:45.429Z,4.80
2023-03-15T06:37:28.837Z,4.23
2023-03-15T06:40:06.068Z,4.00
2023-03-15T06:42:36.277Z,4.37
2023-03-15T06:45:07.141Z,5.47
2023-03-15T06:47:37.052Z,4.80
2023-03-15T06:50:08.281Z,5.00
2023-03-15T06:52:38.857Z,4.47
2023-03-15T06:55:17.217Z,4.40
2023-03-15T06:57:47.481Z,4.93
2023-03-15T07:00:18.640Z,4.77
2023-03-15T07:02:48.357Z,3.90
2023-03-15T07:05:18.379Z,5.00
2023-03-15T07:07:49.320Z,4.30
2023-03-15T07:35:13.008Z,4.40
2023-03-15T07:38:15.235Z,4.70
2023-03-15T07:41:02.006Z,4.60
2023-03-15T07:47:56.535Z,4.57
2023-03-15T07:54:24.996Z,4.10
2023-03-15T07:59:12.009Z,3.97
2023-03-15T08:02:20.135Z,3.87
2023-03-15T08:05:00.716Z,4.17
2023-03-15T08:07:33.988Z,3.93
2023-03-15T08:10:06.174Z,3.87
2023-03-15T08:12:36.519Z,3.20
2023-03-15T08:15:07.390Z,3.30
2023-03-15T08:17:39.586Z,3.70
2023-03-15T08:20:14.742Z,3.40
2023-03-15T08:22:49.269Z,4.10
2023-03-15T08:25:23.996Z,3.77
2023-03-15T08:27:56.549Z,4.17
2023-03-15T08:30:28.634Z,3.47
2023-03-15T08:33:00.456Z,3.80
2023-03-15T08:35:33.515Z,3.83
2023-03-15T08:38:09.965Z,3.23
2023-03-15T08:40:45.200Z,3.47
2023-03-15T08:43:15.955Z,3.40
2023-03-15T08:46:00.065Z,4.60
2023-03-15T08:48:35.532Z,3.40
2023-03-15T08:51:07.001Z,3.97
2023-03-15T08:53:41.434Z,4.30
2023-03-15T08:56:12.425Z,3.70
2023-03-15T08:58:43.977Z,4.27
2023-03-15T09:01:14.876Z,3.87
2023-03-15T09:03:46.187Z,4.70
2023-03-15T09:06:16.905Z,3.93
2023-03-15T09:09:07.691Z,3.87
2023-03-15T09:11:38.951Z,3.10
2023-03-15T09:16:08.455Z,3.60
2023-03-15T09:18:50.646Z,4.33
2023-03-15T09:21:39.811Z,4.00
2023-03-15T09:24:20.515Z,3.97
2023-03-15T09:26:58.694Z,4.30
2023-03-15T09:29:34.403Z,4.30
2023-03-15T09:32:04.748Z,3.67
2023-03-15T09:34:59.068Z,3.53
2023-03-15T09:37:54.282Z,3.90
2023-03-15T09:40:31.229Z,2.87
2023-03-15T09:43:15.939Z,2.30
2023-03-15T09:46:03.140Z,2.90
2023-03-15T09:48:38.866Z,3.20
2023-03-15T09:51:20.988Z,2.77
2023-03-15T09:54:07.030Z,3.40
2023-03-15T09:56:42.528Z,3.30
2023-03-15T09:59:12.760Z,2.47
2023-03-15T10:01:44.284Z,2.53
2023-03-15T10:04:21.660Z,2.20
2023-03-15T10:06:59.731Z,2.33
2023-03-15T10:09:35.832Z,2.20
2023-03-15T10:12:12.076Z,2.10
2023-03-15T10:15:19.781Z,2.23
2023-03-15T10:18:00.298Z,1.97
2023-03-15T10:20:34.329Z,2.43
2023-03-15T10:23:11.594Z,2.00
2023-03-15T10:25:44.578Z,2.37
2023-03-15T10:28:27.090Z,2.30
2023-03-15T10:31:01.656Z,2.50
2023-03-15T10:33:34.907Z,2.50
2023-03-15T10:36:13.533Z,3.40
2023-03-15T10:38:43.868Z,2.03
2023-03-15T10:41:23.477Z,1.83
2023-03-15T10:44:05.060Z,2.77
2023-03-15T10:46:35.516Z,2.03
2023-03-15T10:49:13.528Z,2.50
2023-03-15T10:51:45.322Z,2.47
2023-03-15T10:54:18.013Z,2.47
2023-03-15T10:56:50.803Z,2.00
2023-03-15T10:59:25.213Z,1.73
2023-03-15T11:01:56.694Z,2.10
2023-03-15T11:04:32.537Z,1.80
2023-03-15T11:07:07.840Z,3.77
2023-03-15T11:09:43.366Z,2.27
2023-03-15T11:12:19.573Z,1.93
2023-03-15T11:14:54.039Z,4.27
2023-03-15T11:17:26.470Z,1.90
2023-03-15T11:19:59.658Z,5.70
2023-03-15T11:22:30.216Z,2.17
2023-03-15T11:25:00.003Z,2.00
2023-03-15T11:27:31.878Z,2.60
2023-03-15T11:30:04.795Z,1.70
2023-03-15T11:32:35.772Z,1.40
2023-03-15T11:35:08.176Z,2.07
2023-03-15T11:37:44.549Z,2.03
2023-03-15T11:40:22.163Z,1.90
2023-03-15T11:42:57.527Z,1.73
2023-03-15T11:45:34.399Z,2.23
2023-03-15T11:48:29.350Z,1.30
2023-03-15T11:51:00.977Z,1.47
2023-03-15T11:53:36.898Z,1.40
2023-03-15T11:56:24.527Z,1.80
2023-03-15T11:59:08.680Z,1.40
2023-03-15T12:01:45.418Z,1.40
2023-03-15T12:04:44.880Z,1.40
2023-03-15T12:07:34.663Z,1.80
2023-03-15T12:10:32.354Z,1.23
2023-03-15T12:13:09.327Z,1.30
2023-03-15T12:15:48.261Z,1.47
2023-03-15T12:18:24.918Z,1.17
2023-03-15T12:21:07.870Z,0.90
2023-03-15T12:23:42.836Z,0.63
2023-03-15T12:26:25.513Z,0.60
2023-03-15T12:29:07.444Z,0.80
2023-03-15T12:31:55.246Z,0.70
2023-03-15T12:34:40.232Z,0.73
2023-03-15T12:37:15.803Z,0.73
2023-03-15T12:39:50.642Z,0.97
2023-03-15T12:42:59.451Z,0.80
2023-03-15T12:45:49.339Z,1.00
2023-03-15T12:48:29.458Z,1.40
2023-03-15T12:51:04.449Z,1.57
2023-03-15T12:53:48.730Z,1.30
2023-03-15T12:56:43.179Z,1.60
2023-03-15T12:59:23.517Z,1.37
2023-03-15T13:01:54.131Z,1.20
2023-03-15T13:04:24.620Z,1.90
2023-03-15T13:07:04.949Z,1.37
2023-03-15T13:09:57.314Z,1.33
2023-03-15T13:12:31.999Z,1.67
2023-03-15T13:15:09.167Z,1.27
2023-03-15T13:17:45.334Z,1.33
2023-03-15T13:20:27.668Z,1.10
2023-03-15T13:23:09.352Z,1.70
2023-03-15T13:25:47.066Z,1.23
2023-03-15T13:28:25.183Z,1.90
2023-03-15T13:30:57.695Z,1.57
2023-03-15T13:33:29.832Z,1.97
2023-03-15T13:36:01.494Z,1.20
2023-03-15T13:38:36.982Z,1.43
2023-03-15T13:41:08.399Z,1.80
2023-03-15T13:43:40.514Z,1.57
2023-03-15T13:46:10.297Z,1.53
2023-03-15T13:48:44.287Z,1.13
2023-03-15T13:51:22.751Z,1.63
2023-03-15T13:53:58.087Z,1.37
2023-03-15T13:56:43.564Z,1.30
2023-03-15T13:59:18.912Z,1.27
2023-03-15T14:01:48.875Z,1.63
2023-03-15T14:04:21.030Z,1.30
2023-03-15T14:06:51.299Z,1.30
2023-03-15T14:09:26.007Z,1.37
2023-03-15T14:12:06.760Z,1.50
2023-03-15T14:14:41.240Z,1.23
2023-03-15T14:17:22.290Z,1.40
2023-03-15T14:19:59.432Z,1.20
2023-03-15T14:22:29.271Z,1.43
2023-03-15T14:25:01.546Z,1.47
2023-03-15T14:27:31.614Z,1.17
2023-03-15T14:30:03.160Z,1.40
2023-03-15T14:32:35.200Z,1.10
2023-03-15T14:35:09.041Z,1.70
2023-03-15T14:37:41.530Z,1.67
2023-03-15T14:40:21.097Z,1.33
2023-03-15T14:42:52.631Z,1.80
2023-03-15T14:45:24.015Z,1.47
2023-03-15T14:47:57.776Z,1.20
2023-03-15T14:50:30.956Z,1.67
2023-03-15T14:53:01.674Z,1.27
2023-03-15T14:55:36.411Z,1.30
2023-03-15T14:58:07.002Z,1.20
2023-03-15T15:00:36.761Z,1.47
2023-03-15T15:03:10.556Z,1.50
2023-03-15T15:05:40.192Z,1.63
2023-03-15T15:08:13.580Z,1.50
2023-03-15T15:10:48.653Z,1.40
2023-03-15T15:13:21.358Z,1.43
2023-03-15T15:15:56.166Z,1.70
2023-03-15T15:18:27.617Z,1.10
2023-03-15T15:20:58.401Z,1.40
2023-03-15T15:23:30.987Z,1.90
2023-03-15T15:26:05.202Z,1.30
2023-03-15T15:28:37.667Z,1.00
2023-03-15T15:31:09.370Z,1.87
2023-03-15T15:33:39.058Z,1.30
2023-03-15T15:36:14.806Z,1.47
2023-03-15T15:38:45.588Z,1.40
2023-03-15T15:41:26.253Z,1.40
2023-03-15T15:43:56.559Z,1.40
2023-03-15T15:46:26.715Z,1.73
2023-03-15T15:48:58.893Z,1.90
2023-03-15T15:51:31.821Z,1.43
2023-03-15T15:54:03.638Z,1.10
2023-03-15T15:56:40.160Z,1.33
2023-03-15T15:59:15.036Z,1.60
2023-03-15T16:01:59.126Z,1.37
2023-03-15T16:04:30.240Z,1.50
2023-03-15T16:07:02.641Z,1.23
2023-03-15T16:09:36.209Z,1.50
2023-03-15T16:12:15.432Z,1.37
2023-03-15T16:14:45.276Z,1.90
2023-03-15T16:17:19.087Z,1.77
2023-03-15T16:19:49.008Z,1.10
2023-03-15T16:22:19.971Z,1.10
2023-03-15T16:24:53.087Z,1.23
2023-03-15T16:27:28.665Z,1.40
2023-03-15T16:29:58.875Z,1.20
2023-03-15T16:32:43.360Z,1.40
2023-03-15T16:35:16.498Z,1.50
2023-03-15T16:37:48.674Z,1.53
2023-03-15T16:40:24.230Z,1.53
2023-03-15T16:42:57.352Z,1.40
2023-03-15T16:45:27.870Z,14.33
2023-03-15T16:47:58.421Z,15.70
2023-03-15T16:50:28.852Z,8.70
2023-03-15T16:53:00.895Z,8.30
2023-03-15T16:55:33.987Z,2.07
2023-03-15T16:58:14.227Z,1.07
2023-03-15T17:00:46.729Z,1.80
2023-03-15T17:03:17.937Z,1.20
2023-03-15T17:05:49.550Z,2.10
2023-03-15T17:08:22.637Z,1.93
2023-03-15T17:10:52.670Z,2.10
2023-03-15T17:13:29.875Z,1.80
2023-03-15T17:15:59.776Z,1.70
2023-03-15T17:18:30.817Z,2.00
2023-03-15T17:21:00.780Z,1.97
2023-03-15T17:23:30.863Z,2.60
2023-03-15T17:26:00.927Z,2.07
2023-03-15T17:28:33.209Z,1.67
2023-03-15T17:31:23.558Z,2.20
2023-03-15T17:33:52.902Z,2.50
2023-03-15T17:36:25.025Z,2.67
2023-03-15T17:38:56.901Z,2.20
2023-03-15T17:41:30.501Z,3.50
2023-03-15T17:44:03.234Z,3.40
2023-03-15T17:46:33.379Z,3.60
2023-03-15T17:49:04.215Z,3.63
2023-03-15T17:51:35.972Z,3.47
2023-03-15T17:54:15.684Z,3.00
2023-03-15T17:56:45.371Z,3.60
2023-03-15T17:59:17.587Z,2.90
2023-03-15T18:01:48.899Z,3.23
2023-03-15T18:04:19.052Z,3.67
2023-03-15T18:06:48.914Z,3.63
2023-03-15T18:09:18.572Z,3.30
2023-03-15T18:11:48.362Z,3.60
2023-03-15T18:14:21.056Z,4.50
2023-03-15T18:16:52.616Z,4.40
2023-03-15T18:19:22.486Z,3.73
2023-03-15T18:21:52.162Z,4.13
2023-03-15T18:24:21.917Z,4.30
2023-03-15T18:26:52.861Z,3.90
2023-03-15T18:29:25.626Z,2.70
2023-03-15T18:31:55.298Z,2.97
2023-03-15T18:34:25.069Z,3.67
2023-03-15T18:36:55.107Z,10.30
2023-03-15T18:39:25.380Z,13.47
2023-03-15T18:41:54.996Z,11.50
2023-03-15T18:44:27.788Z,6.90
2023-03-15T18:46:57.969Z,4.93
2023-03-15T18:49:27.625Z,3.60
2023-03-15T18:51:57.220Z,4.07
2023-03-15T18:54:26.951Z,4.27
2023-03-15T18:56:56.562Z,5.03
2023-03-15T18:59:28.832Z,5.20
2023-03-15T19:01:59.103Z,5.20
2023-03-15T19:04:29.428Z,5.33
2023-03-15T19:06:59.076Z,6.27
2023-03-15T19:09:29.366Z,6.53
2023-03-15T19:11:59.587Z,5.97
2023-03-15T19:14:31.863Z,5.50
2023-03-15T19:17:02.223Z,3.93
2023-03-15T19:19:32.108Z,3.30
2023-03-15T19:22:01.778Z,3.87
2023-03-15T19:24:33.233Z,3.50
2023-03-15T19:27:03.109Z,3.53
2023-03-15T19:29:35.985Z,3.77
2023-03-15T19:32:06.498Z,2.57
2023-03-15T19:34:36.762Z,3.20
2023-03-15T19:37:07.483Z,2.60
2023-03-15T19:39:37.954Z,2.97
2023-03-15T19:42:08.325Z,2.93
2023-03-15T19:44:41.488Z,2.80
2023-03-15T19:47:12.005Z,3.17
2023-03-15T19:49:41.927Z,3.33
2023-03-15T19:52:15.854Z,3.30
2023-03-15T19:54:47.199Z,3.30
2023-03-15T19:57:17.808Z,4.20
2023-03-15T19:59:50.129Z,3.90
2023-03-15T20:02:19.856Z,3.23
2023-03-15T20:04:49.504Z,3.63
2023-03-15T20:07:20.207Z,3.07
2023-03-15T20:09:49.879Z,3.57
2023-03-15T20:12:19.619Z,3.47
2023-03-15T20:14:52.070Z,3.73
2023-03-15T20:17:22.965Z,4.00
2023-03-15T20:19:53.148Z,4.00
2023-03-15T20:22:23.164Z,3.47
2023-03-15T20:24:52.830Z,3.93
2023-03-15T20:27:22.592Z,3.80
2023-03-15T20:29:56.639Z,3.00
2023-03-15T20:32:26.348Z,3.07
2023-03-15T20:34:57.443Z,2.77
2023-03-15T20:37:28.402Z,3.13
2023-03-15T20:39:58.331Z,2.70
2023-03-15T20:42:28.020Z,3.17
2023-03-15T20:45:00.235Z,3.07
2023-03-15T20:47:29.964Z,3.90
2023-03-15T20:50:00.273Z,3.53
2023-03-15T20:52:30.209Z,3.60
2023-03-15T20:54:59.887Z,3.80
2023-03-15T20:57:29.573Z,3.53
2023-03-15T21:00:02.291Z,3.43
2023-03-15T21:02:33.136Z,3.70
2023-03-15T21:05:02.826Z,4.00
2023-03-15T21:07:32.902Z,3.97
2023-03-15T21:10:02.605Z,4.63
2023-03-15T21:12:32.935Z,4.10
2023-03-15T21:15:05.299Z,2.87
2023-03-15T21:17:35.150Z,3.00
2023-03-15T21:20:07.298Z,2.60
2023-03-15T21:22:37.192Z,2.70
2023-03-15T21:25:08.475Z,2.43
2023-03-15T21:27:38.207Z,2.50
2023-03-15T21:30:13.956Z,3.40
2023-03-15T21:32:44.754Z,3.20
2023-03-15T21:35:17.182Z,2.47
2023-03-15T21:37:46.923Z,2.90
2023-03-15T21:40:18.199Z,2.23
2023-03-15T21:42:48.004Z,2.87
2023-03-15T21:45:23.199Z,2.70
2023-03-15T21:47:52.908Z,2.97
2023-03-15T21:50:23.464Z,3.17
2023-03-15T21:52:53.900Z,3.23
2023-03-15T21:55:25.181Z,3.03
2023-03-15T21:57:54.868Z,2.70
2023-03-15T22:00:27.293Z,2.50
2023-03-15T22:02:57.112Z,2.80
2023-03-15T22:05:27.480Z,3.13
2023-03-15T22:07:57.126Z,3.00
2023-03-15T22:10:27.178Z,3.10
2023-03-15T22:12:57.030Z,3.37
2023-03-15T22:15:29.381Z,3.67
2023-03-15T22:17:59.038Z,3.20
2023-03-15T22:20:28.712Z,3.30
2023-03-15T22:22:58.342Z,3.83
2023-03-15T22:25:28.025Z,2.90
2023-03-15T22:27:57.712Z,3.00
2023-03-15T22:30:30.100Z,2.43
2023-03-15T22:32:59.877Z,2.90
2023-03-15T22:35:29.724Z,2.57
2023-03-15T22:37:59.430Z,2.60
2023-03-15T22:40:30.544Z,3.20
2023-03-15T22:43:00.324Z,2.90
2023-03-15T22:45:32.626Z,3.50
2023-03-15T22:48:02.866Z,3.90
2023-03-15T22:50:33.972Z,4.30
2023-03-15T22:53:03.600Z,3.87
2023-03-15T22:55:33.269Z,4.20
2023-03-15T22:58:03.100Z,3.60
2023-03-15T23:00:35.395Z,4.23
2023-03-15T23:03:05.033Z,3.80
2023-03-15T23:05:34.846Z,3.20
2023-03-15T23:08:04.457Z,3.50
2023-03-15T23:10:34.129Z,3.00
2023-03-15T23:13:03.789Z,3.50
2023-03-15T23:15:36.084Z,2.83
2023-03-15T23:18:05.869Z,3.10
2023-03-15T23:20:37.579Z,2.80
2023-03-15T23:23:07.472Z,3.10
2023-03-15T23:25:40.684Z,2.30
2023-03-15T23:28:10.635Z,2.77
2023-03-15T23:30:45.711Z,2.23
2023-03-15T23:33:15.505Z,2.70
2023-03-15T23:35:45.176Z,2.30
2023-03-15T23:38:15.133Z,2.47
2023-03-15T23:40:44.792Z,2.80
2023-03-15T23:43:14.418Z,3.20
2023-03-15T23:45:46.644Z,2.43
2023-03-15T23:48:16.300Z,3.00
2023-03-15T23:50:45.930Z,3.17
2023-03-15T23:53:15.547Z,2.90
2023-03-15T23:55:45.336Z,3.20
2023-03-15T23:58:15.061Z,2.43
